createdAt,value
2019-05-10T00:00:14.889Z,10.67
2019-05-10T00:03:02.177Z,13.00
2019-05-10T00:05:49.472Z,14.23
2019-05-10T00:08:36.637Z,16.10
2019-05-10T00:11:16.586Z,13.93
2019-05-10T00:13:48.773Z,17.40
2019-05-10T00:16:17.971Z,17.07
2019-05-10T00:18:47.019Z,15.10
2019-05-10T00:21:16.059Z,16.10
2019-05-10T00:23:45.053Z,16.43
2019-05-10T00:26:14.082Z,17.37
2019-05-10T00:28:43.110Z,19.30
2019-05-10T00:31:12.159Z,12.47
2019-05-10T00:33:41.178Z,9.80
2019-05-10T00:36:10.213Z,17.37
2019-05-10T00:38:39.272Z,8.80
2019-05-10T00:41:08.332Z,11.27
2019-05-10T00:43:37.313Z,13.70
2019-05-10T00:46:06.365Z,18.60
2019-05-10T00:48:35.419Z,10.07
2019-05-10T00:51:04.458Z,12.90
2019-05-10T00:53:33.501Z,11.60
2019-05-10T00:56:02.638Z,10.60
2019-05-10T00:58:31.669Z,12.70
2019-05-10T01:01:00.685Z,14.00
2019-05-10T01:03:29.658Z,12.00
2019-05-10T01:05:58.561Z,11.40
2019-05-10T01:08:27.598Z,7.23
2019-05-10T01:10:56.625Z,13.53
2019-05-10T01:13:25.673Z,12.20
2019-05-10T01:15:54.702Z,13.03
2019-05-10T01:18:23.789Z,9.93
2019-05-10T01:20:52.882Z,11.67
2019-05-10T01:23:21.925Z,16.53
2019-05-10T01:25:50.975Z,11.23
2019-05-10T01:28:20.009Z,9.27
2019-05-10T01:30:49.127Z,8.73
2019-05-10T01:33:18.156Z,10.10
2019-05-10T01:35:47.121Z,9.70
2019-05-10T01:38:16.064Z,8.33
2019-05-10T01:40:45.116Z,11.03
2019-05-10T01:43:14.136Z,7.23
2019-05-10T01:45:43.230Z,7.20
2019-05-10T01:48:12.331Z,10.77
2019-05-10T01:50:41.290Z,8.70
2019-05-10T01:53:10.228Z,11.67
2019-05-10T01:55:51.718Z,7.40
2019-05-10T01:58:09.861Z,10.97
2019-05-10T02:00:38.901Z,8.37
2019-05-10T02:03:07.934Z,6.87
2019-05-10T02:05:36.989Z,8.03
2019-05-10T02:08:06.035Z,6.83
2019-05-10T02:10:35.064Z,8.00
2019-05-10T02:13:04.118Z,7.97
2019-05-10T02:15:33.161Z,9.50
2019-05-10T02:18:02.228Z,5.03
2019-05-10T02:20:31.278Z,8.90
2019-05-10T02:23:00.358Z,7.83
2019-05-10T02:25:29.410Z,6.10
2019-05-10T02:27:58.466Z,6.67
2019-05-10T02:30:27.526Z,6.40
2019-05-10T02:32:56.589Z,9.90
2019-05-10T02:35:25.648Z,6.77
2019-05-10T02:37:54.732Z,9.80
2019-05-10T02:40:23.835Z,8.90
2019-05-10T02:42:52.879Z,3.83
2019-05-10T02:45:21.938Z,5.77
2019-05-10T02:47:51.005Z,6.30
2019-05-10T02:50:20.118Z,5.23
2019-05-10T02:52:49.450Z,4.73
2019-05-10T02:55:18.518Z,6.10
2019-05-10T02:57:48.078Z,4.43
2019-05-10T03:00:17.814Z,5.30
2019-05-10T03:02:46.847Z,4.90
2019-05-10T03:05:16.113Z,4.93
2019-05-10T03:07:47.414Z,6.03
2019-05-10T03:10:16.673Z,6.53
2019-05-10T03:12:47.194Z,6.60
2019-05-10T03:15:16.350Z,6.77
2019-05-10T03:17:46.591Z,5.90
2019-05-10T03:20:17.153Z,6.33
2019-05-10T03:22:46.298Z,4.57
2019-05-10T03:25:15.349Z,8.70
2019-05-10T03:27:44.502Z,4.00
2019-05-10T03:30:13.674Z,5.27
2019-05-10T03:32:42.751Z,5.77
2019-05-10T03:35:11.842Z,8.70
2019-05-10T03:37:40.934Z,6.20
2019-05-10T03:40:10.302Z,5.23
2019-05-10T03:42:39.338Z,3.63
2019-05-10T03:45:09.863Z,6.30
2019-05-10T03:47:38.994Z,5.70
2019-05-10T03:50:08.121Z,5.73
2019-05-10T03:52:37.193Z,4.40
2019-05-10T03:55:06.697Z,3.53
2019-05-10T03:57:35.807Z,3.60
2019-05-10T04:00:05.443Z,6.10
2019-05-10T04:02:34.485Z,4.73
2019-05-10T04:05:03.531Z,5.40
2019-05-10T04:07:32.545Z,6.80
2019-05-10T04:10:01.614Z,3.47
2019-05-10T04:12:30.753Z,5.03
2019-05-10T04:14:59.817Z,3.80
2019-05-10T04:17:28.877Z,6.60
2019-05-10T04:19:57.856Z,3.60
2019-05-10T04:22:26.895Z,4.60
2019-05-10T04:24:55.941Z,6.33
2019-05-10T04:27:32.330Z,3.13
2019-05-10T04:29:55.757Z,3.20
2019-05-10T04:32:24.809Z,5.10
2019-05-10T04:34:53.864Z,4.60
2019-05-10T04:37:22.892Z,3.47
2019-05-10T04:39:51.963Z,8.70
2019-05-10T04:42:21.002Z,3.53
2019-05-10T04:44:53.092Z,5.13
2019-05-10T04:47:20.850Z,2.93
2019-05-10T04:49:49.913Z,3.90
2019-05-10T04:52:18.974Z,3.00
2019-05-10T04:54:48.093Z,4.47
2019-05-10T04:57:17.197Z,5.40
2019-05-10T04:59:46.245Z,4.10
2019-05-10T05:02:15.285Z,4.60
2019-05-10T05:04:44.342Z,8.50
2019-05-10T05:07:13.425Z,5.40
2019-05-10T05:09:42.477Z,5.57
2019-05-10T05:12:11.525Z,3.90
2019-05-10T05:14:40.591Z,3.17
2019-05-10T05:17:09.771Z,6.50
2019-05-10T05:19:40.826Z,6.90
2019-05-10T05:22:09.620Z,11.37
2019-05-10T05:24:38.698Z,15.80
2019-05-10T05:27:07.814Z,35.77
2019-05-10T05:29:36.877Z,77.33
2019-05-10T05:32:05.951Z,103.53
2019-05-10T05:34:35.009Z,139.87
2019-05-10T05:37:04.067Z,132.93
2019-05-10T05:39:33.135Z,151.90
2019-05-10T05:42:02.187Z,163.90
2019-05-10T05:44:31.325Z,151.20
2019-05-10T05:47:04.223Z,169.33
2019-05-10T05:49:31.173Z,155.80
2019-05-10T05:52:00.218Z,136.57
2019-05-10T05:54:29.271Z,129.37
2019-05-10T05:56:58.321Z,131.40
2019-05-10T05:59:27.541Z,127.60
2019-05-10T06:02:00.565Z,114.30
2019-05-10T06:04:27.392Z,140.87
2019-05-10T06:06:59.053Z,108.00
2019-05-10T06:09:32.090Z,112.83
2019-05-10T06:11:57.997Z,121.83
2019-05-10T06:14:27.057Z,107.10
2019-05-10T06:16:56.108Z,108.37
2019-05-10T06:19:29.558Z,94.23
2019-05-10T06:21:58.216Z,85.20
2019-05-10T06:24:26.774Z,100.93
2019-05-10T06:26:58.360Z,103.70
2019-05-10T06:29:26.596Z,81.13
2019-05-10T06:31:58.780Z,93.30
2019-05-10T06:34:26.424Z,78.00
2019-05-10T06:36:55.465Z,82.47
2019-05-10T06:39:24.544Z,76.77
2019-05-10T06:41:56.175Z,77.50
2019-05-10T06:44:24.914Z,73.87
2019-05-10T06:46:55.245Z,79.93
2019-05-10T06:49:24.317Z,92.57
2019-05-10T06:51:53.366Z,75.77
2019-05-10T06:54:22.430Z,67.63
2019-05-10T06:56:51.469Z,71.90
2019-05-10T06:59:25.017Z,69.60
2019-05-10T07:01:52.084Z,67.53
2019-05-10T07:04:21.576Z,64.77
2019-05-10T07:06:50.671Z,59.10
2019-05-10T07:09:19.719Z,62.80
2019-05-10T07:11:48.785Z,65.03
2019-05-10T07:14:17.854Z,72.23
2019-05-10T07:16:46.983Z,66.40
2019-05-10T07:19:16.021Z,59.53
2019-05-10T07:21:50.881Z,52.70
2019-05-10T07:24:18.158Z,64.77
2019-05-10T07:26:46.645Z,79.53
2019-05-10T07:29:29.066Z,59.87
2019-05-10T07:31:46.481Z,54.83
2019-05-10T07:34:17.500Z,63.70
2019-05-10T07:36:46.321Z,53.13
2019-05-10T07:39:15.332Z,46.53
2019-05-10T07:41:44.446Z,51.40
2019-05-10T07:44:13.514Z,49.00
2019-05-10T07:46:47.094Z,49.07
2019-05-10T07:49:13.332Z,49.00
2019-05-10T07:51:42.414Z,45.53
2019-05-10T07:54:11.483Z,48.23
2019-05-10T07:56:45.580Z,46.93
2019-05-10T07:59:16.220Z,46.37
2019-05-10T08:01:42.119Z,45.03
2019-05-10T08:04:13.132Z,41.73
2019-05-10T08:06:47.567Z,45.23
2019-05-10T08:09:12.730Z,38.63
2019-05-10T08:11:41.793Z,36.23
2019-05-10T08:14:11.361Z,34.00
2019-05-10T08:16:40.579Z,43.33
2019-05-10T08:19:09.646Z,42.10
2019-05-10T08:21:38.701Z,46.13
2019-05-10T08:24:13.695Z,39.33
2019-05-10T08:26:38.558Z,40.27
2019-05-10T08:29:12.735Z,38.20
2019-05-10T08:31:40.853Z,34.37
2019-05-10T08:34:11.647Z,41.30
2019-05-10T08:36:43.372Z,34.73
2019-05-10T08:39:13.654Z,38.47
2019-05-10T08:41:43.260Z,40.07
2019-05-10T08:44:19.456Z,35.87
2019-05-10T08:46:44.403Z,32.00
2019-05-10T08:49:13.642Z,34.40
2019-05-10T08:51:47.970Z,31.83
2019-05-10T08:54:13.499Z,36.80
2019-05-10T08:56:44.077Z,39.80
2019-05-10T08:59:17.929Z,38.23
2019-05-10T09:01:46.537Z,35.47
2019-05-10T09:04:14.897Z,31.57
2019-05-10T09:06:47.456Z,26.00
2019-05-10T09:09:14.729Z,29.17
2019-05-10T09:11:44.449Z,35.40
2019-05-10T09:14:19.781Z,28.13
2019-05-10T09:16:54.502Z,33.77
2019-05-10T09:19:18.605Z,33.57
2019-05-10T09:21:49.779Z,30.10
2019-05-10T09:24:16.881Z,27.13
2019-05-10T09:26:46.958Z,29.40
2019-05-10T09:29:16.705Z,36.07
2019-05-10T09:31:50.483Z,27.23
2019-05-10T09:34:16.529Z,25.03
2019-05-10T09:36:47.179Z,29.87
2019-05-10T09:39:21.449Z,33.47
2019-05-10T09:41:47.105Z,28.03
2019-05-10T09:44:16.142Z,31.37
2019-05-10T09:46:45.201Z,23.30
2019-05-10T09:49:18.214Z,27.63
2019-05-10T09:51:45.046Z,24.97
2019-05-10T09:54:14.114Z,25.73
2019-05-10T09:56:45.041Z,22.97
2019-05-10T09:59:13.973Z,21.83
2019-05-10T10:01:43.094Z,29.23
2019-05-10T10:04:12.164Z,27.77
2019-05-10T10:06:41.803Z,27.37
2019-05-10T10:09:12.046Z,22.03
2019-05-10T10:11:48.600Z,26.93
2019-05-10T10:14:11.924Z,22.57
2019-05-10T10:16:45.894Z,22.47
2019-05-10T10:19:11.733Z,23.27
2019-05-10T10:21:40.845Z,21.77
2019-05-10T10:24:15.716Z,23.83
2019-05-10T10:26:40.669Z,24.80
2019-05-10T10:29:09.723Z,18.90
2019-05-10T10:31:50.891Z,20.27
2019-05-10T10:34:09.569Z,26.17
2019-05-10T10:36:42.622Z,19.87
2019-05-10T10:39:09.650Z,28.73
2019-05-10T10:41:38.849Z,25.53
2019-05-10T10:44:08.444Z,26.47
2019-05-10T10:46:37.681Z,18.50
2019-05-10T10:49:06.742Z,19.33
2019-05-10T10:51:37.773Z,21.47
2019-05-10T10:54:07.388Z,19.13
2019-05-10T10:56:37.505Z,21.00
2019-05-10T10:59:07.556Z,15.33
2019-05-10T11:01:47.300Z,23.13
2019-05-10T11:04:08.289Z,17.70
2019-05-10T11:06:38.174Z,23.40
2019-05-10T11:09:08.417Z,20.33
2019-05-10T11:11:41.242Z,17.63
2019-05-10T11:14:08.241Z,20.10
2019-05-10T11:16:37.304Z,18.40
2019-05-10T11:19:11.437Z,22.30
2019-05-10T11:21:37.057Z,17.47
2019-05-10T11:24:10.477Z,22.77
2019-05-10T11:26:37.113Z,23.77
2019-05-10T11:29:06.289Z,21.10
2019-05-10T11:31:35.446Z,18.03
2019-05-10T11:34:06.187Z,14.10
2019-05-10T11:36:35.422Z,14.73
2019-05-10T11:39:06.185Z,18.10
2019-05-10T11:41:35.295Z,17.53
2019-05-10T11:44:08.797Z,18.43
2019-05-10T11:46:35.569Z,14.17
2019-05-10T11:49:04.646Z,18.53
2019-05-10T11:51:33.689Z,17.50
2019-05-10T11:54:02.785Z,15.80
2019-05-10T11:56:32.372Z,16.13
2019-05-10T11:59:02.508Z,26.10
2019-05-10T12:01:31.811Z,18.23
2019-05-10T12:04:04.719Z,16.13
2019-05-10T12:06:32.082Z,16.77
2019-05-10T12:09:04.602Z,16.87
2019-05-10T12:11:33.920Z,16.93
2019-05-10T12:14:02.878Z,15.00
2019-05-10T12:19:14.923Z,18.23
2019-05-10T12:21:33.595Z,14.33
2019-05-10T12:24:10.431Z,15.03
2019-05-10T12:26:49.078Z,18.40
2019-05-10T12:27:13.325Z,15.90
2019-05-10T12:29:11.822Z,17.63
2019-05-10T12:31:34.973Z,10.73
2019-05-10T12:34:09.122Z,13.50
2019-05-10T12:36:34.909Z,13.37
2019-05-10T12:39:06.265Z,16.23
2019-05-10T12:41:39.863Z,19.10
2019-05-10T12:44:07.434Z,13.97
2019-05-10T12:46:38.927Z,14.77
2019-05-10T12:49:07.559Z,12.90
2019-05-10T12:51:36.513Z,13.53
2019-05-10T12:54:05.571Z,18.23
2019-05-10T12:56:43.027Z,16.00
2019-05-10T12:59:05.398Z,16.50
2019-05-10T13:01:34.539Z,16.97
2019-05-10T13:04:13.470Z,15.60
2019-05-10T13:06:34.458Z,15.93
2019-05-10T13:09:05.618Z,13.37
2019-05-10T13:11:34.689Z,13.63
2019-05-10T13:14:07.605Z,14.87
2019-05-10T13:16:34.593Z,12.70
2019-05-10T13:19:03.658Z,15.00
2019-05-10T13:21:32.767Z,13.80
2019-05-10T13:24:01.850Z,16.67
2019-05-10T13:26:30.882Z,15.63
2019-05-10T13:29:02.019Z,19.10
2019-05-10T13:31:30.723Z,12.13
2019-05-10T13:33:59.764Z,12.40
2019-05-10T13:36:30.669Z,15.33
2019-05-10T13:38:59.589Z,10.23
2019-05-10T13:41:28.681Z,12.37
2019-05-10T13:43:58.986Z,12.00
2019-05-10T13:46:28.546Z,9.47
2019-05-10T13:48:57.590Z,14.50
2019-05-10T13:51:26.623Z,15.00
2019-05-10T13:53:58.914Z,13.90
2019-05-10T13:56:26.457Z,13.33
2019-05-10T13:58:55.513Z,11.00
2019-05-10T14:01:25.617Z,11.20
2019-05-10T14:04:00.882Z,8.87
2019-05-10T14:06:25.446Z,8.23
2019-05-10T14:08:54.484Z,14.27
2019-05-10T14:11:23.541Z,10.83
2019-05-10T14:13:52.586Z,10.40
2019-05-10T14:16:22.508Z,15.23
2019-05-10T14:18:51.877Z,7.40
2019-05-10T14:21:20.938Z,7.83
2019-05-10T14:23:49.986Z,7.97
2019-05-10T14:26:19.062Z,8.80
2019-05-10T14:28:52.935Z,8.50
2019-05-10T14:31:18.888Z,14.00
2019-05-10T14:34:14.083Z,9.10
2019-05-10T14:36:18.711Z,12.70
2019-05-10T14:38:53.701Z,10.97
2019-05-10T14:41:18.526Z,9.50
2019-05-10T14:43:47.570Z,12.70
2019-05-10T14:46:16.621Z,10.30
2019-05-10T14:48:45.663Z,8.70
2019-05-10T14:51:14.738Z,9.63
2019-05-10T14:53:43.773Z,9.87
2019-05-10T14:56:13.966Z,10.60
2019-05-10T14:58:43.693Z,11.47
2019-05-10T15:01:12.734Z,7.40
2019-05-10T15:03:45.714Z,9.83
2019-05-10T15:06:12.577Z,8.47
2019-05-10T15:08:41.629Z,10.03
2019-05-10T15:11:10.677Z,8.70
2019-05-10T15:13:39.741Z,10.10
2019-05-10T15:16:12.865Z,6.30
2019-05-10T15:18:39.677Z,8.50
2019-05-10T15:21:08.732Z,11.60
2019-05-10T15:23:37.768Z,7.63
2019-05-10T15:26:11.880Z,9.53
2019-05-10T15:28:40.365Z,9.30
2019-05-10T15:31:08.363Z,12.27
2019-05-10T15:33:37.427Z,10.83
2019-05-10T15:36:06.553Z,7.10
2019-05-10T15:38:39.558Z,8.97
2019-05-10T15:41:06.371Z,8.37
2019-05-10T15:43:35.432Z,7.37
2019-05-10T15:46:04.483Z,7.00
2019-05-10T15:48:36.449Z,9.17
2019-05-10T15:51:04.371Z,10.20
2019-05-10T15:53:33.439Z,7.17
2019-05-10T15:56:03.950Z,9.30
2019-05-10T15:58:36.589Z,7.97
2019-05-10T16:01:04.196Z,8.00
2019-05-10T16:03:33.268Z,6.47
2019-05-10T16:06:02.306Z,11.37
2019-05-10T16:08:32.003Z,6.20
2019-05-10T16:11:01.573Z,7.77
2019-05-10T16:13:30.649Z,9.57
2019-05-10T16:15:59.685Z,6.87
2019-05-10T16:18:33.441Z,6.57
2019-05-10T16:20:59.509Z,6.80
2019-05-10T16:23:28.573Z,9.07
2019-05-10T16:25:57.637Z,6.90
2019-05-10T16:28:26.693Z,7.67
2019-05-10T16:30:55.745Z,6.63
2019-05-10T16:33:24.721Z,6.27
2019-05-10T16:35:53.788Z,5.90
2019-05-10T16:38:22.922Z,6.67
2019-05-10T16:40:58.361Z,6.27
2019-05-10T16:43:24.725Z,4.47
2019-05-10T16:45:53.646Z,6.60
2019-05-10T16:48:22.689Z,7.80
2019-05-10T16:50:51.798Z,5.33
2019-05-10T16:53:20.885Z,6.87
2019-05-10T16:55:49.921Z,5.17
2019-05-10T16:58:22.275Z,8.77
2019-05-10T17:00:49.741Z,5.53
2019-05-10T17:03:20.585Z,6.43
2019-05-10T17:05:53.634Z,9.47
2019-05-10T17:08:20.340Z,8.07
2019-05-10T17:10:49.404Z,6.53
2019-05-10T17:13:18.467Z,7.00
2019-05-10T17:15:47.521Z,6.63
2019-05-10T17:18:19.881Z,7.47
2019-05-10T17:20:50.789Z,7.10
2019-05-10T17:23:18.119Z,6.23
2019-05-10T17:25:47.203Z,5.50
2019-05-10T17:28:16.232Z,5.73
2019-05-10T17:30:45.280Z,4.43
2019-05-10T17:33:14.321Z,4.20
2019-05-10T17:35:44.162Z,6.90
2019-05-10T17:38:16.179Z,6.53
2019-05-10T17:40:47.563Z,7.40
2019-05-10T17:43:20.814Z,5.10
2019-05-10T17:45:45.750Z,5.47
2019-05-10T17:48:14.882Z,5.50
2019-05-10T17:50:45.701Z,4.40
2019-05-10T17:53:14.709Z,4.60
2019-05-10T17:55:49.234Z,5.23
2019-05-10T17:58:17.051Z,5.07
2019-05-10T18:00:45.485Z,5.40
2019-05-10T18:03:14.554Z,4.80
2019-05-10T18:05:46.473Z,5.00
2019-05-10T18:08:14.396Z,4.80
2019-05-10T18:10:43.446Z,4.97
2019-05-10T18:13:12.487Z,6.07
2019-05-10T18:15:41.521Z,5.07
2019-05-10T18:18:10.596Z,4.70
2019-05-10T18:20:44.049Z,5.43
2019-05-10T18:23:20.047Z,4.97
2019-05-10T18:25:42.226Z,6.30
2019-05-10T18:28:11.288Z,4.50
2019-05-10T18:30:40.340Z,4.70
2019-05-10T18:33:12.328Z,6.67
2019-05-10T18:35:40.171Z,4.20
2019-05-10T18:38:09.229Z,4.43
2019-05-10T18:40:38.321Z,3.63
2019-05-10T18:43:07.375Z,5.60
2019-05-10T18:45:36.433Z,5.87
2019-05-10T18:48:05.514Z,4.80
2019-05-10T18:50:39.757Z,6.10
2019-05-10T18:53:05.337Z,4.93
2019-05-10T18:55:34.413Z,4.93
2019-05-10T18:58:03.473Z,4.50
2019-05-10T19:00:32.533Z,5.80
2019-05-10T19:03:01.577Z,7.70
2019-05-10T19:05:31.836Z,6.47
2019-05-10T19:08:05.472Z,5.57
2019-05-10T19:10:32.106Z,6.00
2019-05-10T19:13:04.916Z,5.33
2019-05-10T19:15:31.942Z,5.53
2019-05-10T19:18:01.030Z,11.73
2019-05-10T19:20:30.086Z,4.60
2019-05-10T19:22:59.159Z,10.33
2019-05-10T19:25:28.290Z,4.97
2019-05-10T19:27:57.361Z,5.50
2019-05-10T19:30:26.413Z,6.53
2019-05-10T19:32:57.916Z,6.27
2019-05-10T19:35:29.724Z,5.37
2019-05-10T19:37:57.536Z,4.30
2019-05-10T19:40:26.565Z,7.20
2019-05-10T19:42:55.649Z,4.67
2019-05-10T19:45:24.731Z,6.00
2019-05-10T19:47:55.528Z,5.80
2019-05-10T19:50:30.960Z,5.73
2019-05-10T19:52:58.469Z,6.70
2019-05-10T19:55:27.598Z,3.93
2019-05-10T19:57:57.440Z,4.80
2019-05-10T20:00:28.080Z,5.20
2019-05-10T20:02:57.731Z,4.97
2019-05-10T20:05:27.486Z,6.33
2019-05-10T20:07:57.303Z,3.50
2019-05-10T20:10:28.425Z,4.93
2019-05-10T20:12:58.046Z,5.33
2019-05-10T20:15:27.805Z,4.47
2019-05-10T20:17:57.747Z,4.30
2019-05-10T20:20:27.473Z,5.47
2019-05-10T20:22:57.087Z,7.40
2019-05-10T20:25:26.911Z,11.97
2019-05-10T20:27:56.942Z,3.73
2019-05-10T20:30:26.208Z,4.57
2019-05-10T20:32:55.180Z,4.33
2019-05-10T20:35:24.221Z,3.60
2019-05-10T20:38:01.380Z,3.13
2019-05-10T20:40:24.009Z,3.97
2019-05-10T20:42:53.058Z,5.73
2019-05-10T20:45:22.089Z,7.67
2019-05-10T20:47:51.154Z,7.17
2019-05-10T20:50:20.307Z,3.77
2019-05-10T20:52:49.370Z,3.00
2019-05-10T20:55:19.369Z,6.03
2019-05-10T20:57:49.044Z,5.23
2019-05-10T21:00:18.806Z,6.80
2019-05-10T21:02:48.466Z,6.30
2019-05-10T21:05:18.222Z,3.23
2019-05-10T21:07:48.074Z,5.43
2019-05-10T21:10:17.673Z,3.53
2019-05-10T21:12:47.480Z,3.93
2019-05-10T21:15:16.581Z,3.40
2019-05-10T21:17:45.639Z,3.30
2019-05-10T21:20:14.798Z,3.90
2019-05-10T21:22:43.845Z,10.13
2019-05-10T21:25:13.025Z,4.83
2019-05-10T21:27:42.802Z,3.60
2019-05-10T21:30:12.037Z,5.43
2019-05-10T21:32:41.085Z,5.20
2019-05-10T21:35:10.496Z,2.50
2019-05-10T21:37:39.556Z,4.70
2019-05-10T21:40:09.092Z,4.43
2019-05-10T21:42:38.280Z,4.57
2019-05-10T21:45:08.116Z,3.37
2019-05-10T21:47:50.607Z,5.03
2019-05-10T21:50:09.560Z,3.00
2019-05-10T21:52:39.424Z,7.60
2019-05-10T21:55:09.646Z,5.10
2019-05-10T21:57:40.176Z,5.33
2019-05-10T22:00:10.988Z,2.33
2019-05-10T22:02:40.859Z,3.60
2019-05-10T22:05:10.589Z,3.13
2019-05-10T22:07:40.247Z,3.60
2019-05-10T22:10:09.537Z,3.97
2019-05-10T22:12:38.587Z,4.90
2019-05-10T22:15:07.641Z,4.50
2019-05-10T22:17:36.713Z,3.53
2019-05-10T22:20:06.183Z,4.00
2019-05-10T22:22:35.242Z,2.77
2019-05-10T22:25:04.605Z,3.10
2019-05-10T22:27:33.717Z,3.97
2019-05-10T22:30:02.873Z,3.80
2019-05-10T22:32:31.937Z,2.67
2019-05-10T22:35:01.417Z,4.07
2019-05-10T22:37:30.457Z,3.80
2019-05-10T22:39:59.523Z,4.63
2019-05-10T22:42:28.575Z,4.00
2019-05-10T22:44:57.717Z,3.17
2019-05-10T22:47:26.842Z,3.07
2019-05-10T22:49:55.886Z,3.30
2019-05-10T22:52:24.924Z,3.60
2019-05-10T22:54:53.976Z,4.50
2019-05-10T22:57:23.020Z,3.00
2019-05-10T22:59:52.075Z,2.80
2019-05-10T23:02:21.211Z,3.80
2019-05-10T23:04:50.289Z,2.67
2019-05-10T23:07:19.323Z,3.87
2019-05-10T23:09:48.356Z,3.30
2019-05-10T23:12:18.197Z,4.23
2019-05-10T23:14:47.325Z,3.53
2019-05-10T23:17:16.491Z,4.30
2019-05-10T23:19:45.545Z,3.27
2019-05-10T23:22:14.607Z,5.57
2019-05-10T23:24:43.645Z,2.40
2019-05-10T23:27:12.715Z,4.07
2019-05-10T23:29:41.765Z,3.97
2019-05-10T23:32:10.836Z,4.43
2019-05-10T23:34:39.900Z,2.40
2019-05-10T23:37:09.025Z,3.20
2019-05-10T23:39:41.168Z,2.50
2019-05-10T23:42:08.905Z,2.93
2019-05-10T23:44:37.949Z,2.53
2019-05-10T23:47:07.019Z,4.03
2019-05-10T23:49:36.040Z,3.10
2019-05-10T23:52:05.182Z,4.03
2019-05-10T23:54:34.346Z,2.30
2019-05-10T23:57:03.404Z,3.47
2019-05-10T23:59:32.450Z,2.90
